sensor_id;sensor_type;location;lat;lon;timestamp;pressure;altitude;pressure_sealevel;temperature;humidity
6032;BME280;3044;43.232;27.972;2023-12-28T00:02:03;45140.47;;;-143.84;62.05
6032;BME280;3044;43.232;27.972;2023-12-28T00:04:30;45106.19;;;-143.84;62.27
6032;BME280;3044;43.232;27.972;2023-12-28T00:06:58;45110.00;;;-143.84;62.57
6032;BME280;3044;43.232;27.972;2023-12-28T00:09:25;45106.19;;;-143.84;62.59
6032;BME280;3044;43.232;27.972;2023-12-28T00:11:52;45130.94;;;-143.84;62.62
6032;BME280;3044;43.232;27.972;2023-12-28T00:14:21;45125.22;;;-143.84;62.60
6032;BME280;3044;43.232;27.972;2023-12-28T00:16:48;45125.22;;;-143.84;62.92
6032;BME280;3044;43.232;27.972;2023-12-28T00:19:15;45123.34;;;-143.84;62.80
6032;BME280;3044;43.232;27.972;2023-12-28T00:21:42;45132.84;;;-143.84;62.81
6032;BME280;3044;43.232;27.972;2023-12-28T00:24:10;45125.22;;;-143.84;62.97
6032;BME280;3044;43.232;27.972;2023-12-28T00:26:37;45130.94;;;-143.84;63.01
6032;BME280;3044;43.232;27.972;2023-12-28T00:29:04;45140.47;;;-143.84;63.04
6032;BME280;3044;43.232;27.972;2023-12-28T00:31:34;45115.72;;;-143.84;63.14
6032;BME280;3044;43.232;27.972;2023-12-28T00:34:01;45148.09;;;-143.84;63.10
6032;BME280;3044;43.232;27.972;2023-12-28T00:36:28;45138.56;;;-143.84;63.43
6032;BME280;3044;43.232;27.972;2023-12-28T00:38:55;45106.19;;;-143.84;63.69
6032;BME280;3044;43.232;27.972;2023-12-28T00:41:22;45151.91;;;-143.84;64.13
6032;BME280;3044;43.232;27.972;2023-12-28T00:43:49;45127.13;;;-143.84;64.25
6032;BME280;3044;43.232;27.972;2023-12-28T00:46:17;45148.09;;;-143.84;64.14
6032;BME280;3044;43.232;27.972;2023-12-28T00:48:46;45117.63;;;-143.84;64.18
6032;BME280;3044;43.232;27.972;2023-12-28T00:51:14;45130.94;;;-143.84;64.82
6032;BME280;3044;43.232;27.972;2023-12-28T00:53:41;45136.66;;;-143.84;64.60
6032;BME280;3044;43.232;27.972;2023-12-28T00:56:09;45136.66;;;-143.84;64.69
6032;BME280;3044;43.232;27.972;2023-12-28T00:58:39;45117.63;;;-143.84;64.22
6032;BME280;3044;43.232;27.972;2023-12-28T01:01:06;45140.47;;;-143.84;63.82
6032;BME280;3044;43.232;27.972;2023-12-28T01:03:33;45136.66;;;-143.84;63.97
6032;BME280;3044;43.232;27.972;2023-12-28T01:06:01;45142.38;;;-143.84;63.49
6032;BME280;3044;43.232;27.972;2023-12-28T01:08:29;45121.44;;;-143.84;63.64
6032;BME280;3044;43.232;27.972;2023-12-28T01:10:56;45132.84;;;-143.84;63.54
6032;BME280;3044;43.232;27.972;2023-12-28T01:13:23;45142.38;;;-143.84;62.97
6032;BME280;3044;43.232;27.972;2023-12-28T01:15:50;45108.09;;;-143.84;63.11
6032;BME280;3044;43.232;27.972;2023-12-28T01:18:17;45125.22;;;-143.84;62.62
6032;BME280;3044;43.232;27.972;2023-12-28T01:20:44;45144.28;;;-143.84;62.49
6032;BME280;3044;43.232;27.972;2023-12-28T01:23:13;45140.47;;;-143.84;62.34
6032;BME280;3044;43.232;27.972;2023-12-28T01:25:40;45121.44;;;-143.84;62.00
6032;BME280;3044;43.232;27.972;2023-12-28T01:28:07;45121.44;;;-143.84;61.72
6032;BME280;3044;43.232;27.972;2023-12-28T01:30:34;45151.91;;;-143.84;61.57
6032;BME280;3044;43.232;27.972;2023-12-28T01:33:01;45129.03;;;-143.84;61.32
6032;BME280;3044;43.232;27.972;2023-12-28T01:35:28;45132.84;;;-143.84;61.30
6032;BME280;3044;43.232;27.972;2023-12-28T01:37:55;45123.34;;;-143.84;61.07
6032;BME280;3044;43.232;27.972;2023-12-28T01:40:24;45125.22;;;-143.84;61.38
6032;BME280;3044;43.232;27.972;2023-12-28T01:42:51;45142.38;;;-143.84;61.31
6032;BME280;3044;43.232;27.972;2023-12-28T01:45:18;45115.72;;;-143.84;61.25
6032;BME280;3044;43.232;27.972;2023-12-28T01:47:45;45113.81;;;-143.84;61.16
6032;BME280;3044;43.232;27.972;2023-12-28T01:50:14;45125.22;;;-143.84;61.11
6032;BME280;3044;43.232;27.972;2023-12-28T01:52:42;45153.81;;;-143.84;61.05
6032;BME280;3044;43.232;27.972;2023-12-28T01:55:09;45113.81;;;-143.84;60.80
6032;BME280;3044;43.232;27.972;2023-12-28T01:57:38;45144.28;;;-143.84;60.46
6032;BME280;3044;43.232;27.972;2023-12-28T02:00:06;45127.13;;;-143.84;60.44
6032;BME280;3044;43.232;27.972;2023-12-28T02:02:34;45113.81;;;-143.84;60.35
6032;BME280;3044;43.232;27.972;2023-12-28T02:05:01;45136.66;;;-143.84;60.23
6032;BME280;3044;43.232;27.972;2023-12-28T02:07:29;45125.22;;;-143.84;60.36
6032;BME280;3044;43.232;27.972;2023-12-28T02:09:56;45140.47;;;-143.84;60.21
6032;BME280;3044;43.232;27.972;2023-12-28T02:12:23;45138.56;;;-143.84;59.98
6032;BME280;3044;43.232;27.972;2023-12-28T02:14:52;45110.00;;;-143.84;60.34
6032;BME280;3044;43.232;27.972;2023-12-28T02:17:23;45132.84;;;-143.84;60.36
6032;BME280;3044;43.232;27.972;2023-12-28T02:19:54;45092.88;;;-143.84;60.82
6032;BME280;3044;43.232;27.972;2023-12-28T02:22:24;45148.09;;;-143.84;60.66
6032;BME280;3044;43.232;27.972;2023-12-28T02:25:05;45127.13;;;-143.84;60.78
6032;BME280;3044;43.232;27.972;2023-12-28T02:27:34;45153.81;;;-143.84;60.92
6032;BME280;3044;43.232;27.972;2023-12-28T02:30:03;45138.56;;;-143.84;60.82
6032;BME280;3044;43.232;27.972;2023-12-28T02:32:46;45136.66;;;-143.84;61.08
6032;BME280;3044;43.232;27.972;2023-12-28T02:35:20;45134.75;;;-143.84;61.22
6032;BME280;3044;43.232;27.972;2023-12-28T02:37:52;45102.38;;;-143.84;60.99
6032;BME280;3044;43.232;27.972;2023-12-28T02:40:22;45134.75;;;-143.84;61.16
6032;BME280;3044;43.232;27.972;2023-12-28T02:42:50;45121.44;;;-143.84;61.01
6032;BME280;3044;43.232;27.972;2023-12-28T02:45:18;45142.38;;;-143.84;60.89
6032;BME280;3044;43.232;27.972;2023-12-28T02:47:45;45110.00;;;-143.84;60.72
6032;BME280;3044;43.232;27.972;2023-12-28T02:50:12;45125.22;;;-143.84;60.81
6032;BME280;3044;43.232;27.972;2023-12-28T02:52:39;45146.19;;;-143.84;61.41
6032;BME280;3044;43.232;27.972;2023-12-28T02:55:07;45123.34;;;-143.84;61.26
6032;BME280;3044;43.232;27.972;2023-12-28T02:57:36;45125.22;;;-143.84;61.30
6032;BME280;3044;43.232;27.972;2023-12-28T03:00:05;45087.16;;;-143.84;61.49
6032;BME280;3044;43.232;27.972;2023-12-28T03:02:35;45094.78;;;-143.84;61.73
6032;BME280;3044;43.232;27.972;2023-12-28T03:05:03;45148.09;;;-143.84;61.57
6032;BME280;3044;43.232;27.972;2023-12-28T03:07:31;45151.91;;;-143.84;61.49
6032;BME280;3044;43.232;27.972;2023-12-28T03:09:58;45142.38;;;-143.84;61.27
6032;BME280;3044;43.232;27.972;2023-12-28T03:12:25;45142.38;;;-143.84;61.40
6032;BME280;3044;43.232;27.972;2023-12-28T03:14:54;45130.94;;;-143.84;61.42
6032;BME280;3044;43.232;27.972;2023-12-28T03:17:21;45111.91;;;-143.84;61.41
6032;BME280;3044;43.232;27.972;2023-12-28T03:19:48;45161.41;;;-143.84;61.09
6032;BME280;3044;43.232;27.972;2023-12-28T03:22:15;45146.19;;;-143.84;60.85
6032;BME280;3044;43.232;27.972;2023-12-28T03:24:43;45132.84;;;-143.84;61.11
6032;BME280;3044;43.232;27.972;2023-12-28T03:27:10;45136.66;;;-143.84;61.07
6032;BME280;3044;43.232;27.972;2023-12-28T03:29:37;45146.19;;;-143.84;60.84
6032;BME280;3044;43.232;27.972;2023-12-28T03:32:06;45150.00;;;-143.84;61.32
6032;BME280;3044;43.232;27.972;2023-12-28T03:34:33;45150.00;;;-143.84;60.96
6032;BME280;3044;43.232;27.972;2023-12-28T03:37:01;45132.84;;;-143.84;60.91
6032;BME280;3044;43.232;27.972;2023-12-28T03:39:28;45123.34;;;-143.84;61.35
6032;BME280;3044;43.232;27.972;2023-12-28T03:41:55;45132.84;;;-143.84;61.55
6032;BME280;3044;43.232;27.972;2023-12-28T03:44:22;45140.47;;;-143.84;61.77
6032;BME280;3044;43.232;27.972;2023-12-28T03:46:50;45132.84;;;-143.84;61.23
6032;BME280;3044;43.232;27.972;2023-12-28T03:49:19;45130.94;;;-143.84;61.66
6032;BME280;3044;43.232;27.972;2023-12-28T03:51:48;45148.09;;;-143.84;61.54
6032;BME280;3044;43.232;27.972;2023-12-28T03:54:16;45144.28;;;-143.84;62.34
6032;BME280;3044;43.232;27.972;2023-12-28T03:56:43;45125.22;;;-143.84;62.09
6032;BME280;3044;43.232;27.972;2023-12-28T03:59:11;45144.28;;;-143.84;62.25
6032;BME280;3044;43.232;27.972;2023-12-28T04:01:38;45130.94;;;-143.84;62.33
6032;BME280;3044;43.232;27.972;2023-12-28T04:04:05;45127.13;;;-143.84;62.08
6032;BME280;3044;43.232;27.972;2023-12-28T04:06:34;45138.56;;;-143.84;62.26
6032;BME280;3044;43.232;27.972;2023-12-28T04:09:01;45159.50;;;-143.84;62.37
6032;BME280;3044;43.232;27.972;2023-12-28T04:11:28;45146.19;;;-143.84;61.95
6032;BME280;3044;43.232;27.972;2023-12-28T04:13:55;45121.44;;;-143.84;62.74
6032;BME280;3044;43.232;27.972;2023-12-28T04:16:22;45132.84;;;-143.84;62.18
6032;BME280;3044;43.232;27.972;2023-12-28T04:18:49;45148.09;;;-143.84;62.37
6032;BME280;3044;43.232;27.972;2023-12-28T04:21:16;45117.63;;;-143.84;61.87
6032;BME280;3044;43.232;27.972;2023-12-28T04:23:45;45144.28;;;-143.84;62.06
6032;BME280;3044;43.232;27.972;2023-12-28T04:26:12;45136.66;;;-143.84;61.93
6032;BME280;3044;43.232;27.972;2023-12-28T04:28:39;45130.94;;;-143.84;61.92
6032;BME280;3044;43.232;27.972;2023-12-28T04:31:06;45146.19;;;-143.84;61.90
6032;BME280;3044;43.232;27.972;2023-12-28T04:33:34;45169.03;;;-143.84;62.32
6032;BME280;3044;43.232;27.972;2023-12-28T04:36:01;45138.56;;;-143.84;61.58
6032;BME280;3044;43.232;27.972;2023-12-28T04:38:31;45144.28;;;-143.84;61.97
6032;BME280;3044;43.232;27.972;2023-12-28T04:41:00;45125.22;;;-143.84;61.70
6032;BME280;3044;43.232;27.972;2023-12-28T04:43:27;45136.66;;;-143.84;61.95
6032;BME280;3044;43.232;27.972;2023-12-28T04:45:54;45138.56;;;-143.84;62.24
6032;BME280;3044;43.232;27.972;2023-12-28T04:48:21;45148.09;;;-143.84;61.96
6032;BME280;3044;43.232;27.972;2023-12-28T04:50:51;45197.59;;;-143.84;62.17
6032;BME280;3044;43.232;27.972;2023-12-28T04:53:18;45136.66;;;-143.84;62.47
6032;BME280;3044;43.232;27.972;2023-12-28T04:55:45;45127.13;;;-143.84;61.99
6032;BME280;3044;43.232;27.972;2023-12-28T04:58:14;45136.66;;;-143.84;62.51
6032;BME280;3044;43.232;27.972;2023-12-28T05:00:41;45144.28;;;-143.84;62.18
6032;BME280;3044;43.232;27.972;2023-12-28T05:03:08;45151.91;;;-143.84;62.74
6032;BME280;3044;43.232;27.972;2023-12-28T05:05:35;45129.03;;;-143.84;63.54
6032;BME280;3044;43.232;27.972;2023-12-28T05:08:03;45155.69;;;-143.84;63.11
6032;BME280;3044;43.232;27.972;2023-12-28T05:10:30;45123.34;;;-143.84;62.69
6032;BME280;3044;43.232;27.972;2023-12-28T05:12:57;45130.94;;;-143.84;62.77
6032;BME280;3044;43.232;27.972;2023-12-28T05:15:26;45119.53;;;-143.84;62.50
6032;BME280;3044;43.232;27.972;2023-12-28T05:17:53;45150.00;;;-143.84;62.48
6032;BME280;3044;43.232;27.972;2023-12-28T05:20:20;45117.63;;;-143.84;61.53
6032;BME280;3044;43.232;27.972;2023-12-28T05:22:47;45108.09;;;-143.84;61.22
6032;BME280;3044;43.232;27.972;2023-12-28T05:25:14;45142.38;;;-143.84;61.69
6032;BME280;3044;43.232;27.972;2023-12-28T05:27:41;45140.47;;;-143.84;61.43
6032;BME280;3044;43.232;27.972;2023-12-28T05:30:09;45140.47;;;-143.84;62.00
6032;BME280;3044;43.232;27.972;2023-12-28T05:32:38;45155.69;;;-143.84;62.32
6032;BME280;3044;43.232;27.972;2023-12-28T05:35:06;45142.38;;;-143.84;62.15
6032;BME280;3044;43.232;27.972;2023-12-28T05:37:33;45110.00;;;-143.84;61.71
6032;BME280;3044;43.232;27.972;2023-12-28T05:40:00;45146.19;;;-143.84;61.38
6032;BME280;3044;43.232;27.972;2023-12-28T05:42:28;45148.09;;;-143.84;61.60
6032;BME280;3044;43.232;27.972;2023-12-28T05:44:55;45132.84;;;-143.84;61.41
6032;BME280;3044;43.232;27.972;2023-12-28T05:47:22;45121.44;;;-143.84;60.97
6032;BME280;3044;43.232;27.972;2023-12-28T05:49:51;45130.94;;;-143.84;61.23
6032;BME280;3044;43.232;27.972;2023-12-28T05:52:18;45148.09;;;-143.84;61.35
6032;BME280;3044;43.232;27.972;2023-12-28T05:54:45;45140.47;;;-143.84;61.77
6032;BME280;3044;43.232;27.972;2023-12-28T05:57:11;45155.69;;;-143.84;62.37
6032;BME280;3044;43.232;27.972;2023-12-28T05:59:38;45132.84;;;-143.84;63.07
6032;BME280;3044;43.232;27.972;2023-12-28T06:02:06;45115.72;;;-143.84;63.11
6032;BME280;3044;43.232;27.972;2023-12-28T06:04:33;45151.91;;;-143.84;63.66
6032;BME280;3044;43.232;27.972;2023-12-28T06:07:04;45136.66;;;-143.84;64.15
6032;BME280;3044;43.232;27.972;2023-12-28T06:09:31;45134.75;;;-143.84;64.61
6032;BME280;3044;43.232;27.972;2023-12-28T06:11:59;45130.94;;;-143.84;65.28
6032;BME280;3044;43.232;27.972;2023-12-28T06:14:26;45151.91;;;-143.84;65.66
6032;BME280;3044;43.232;27.972;2023-12-28T06:16:53;45144.28;;;-143.84;65.66
6032;BME280;3044;43.232;27.972;2023-12-28T06:19:20;45129.03;;;-143.84;65.56
6032;BME280;3044;43.232;27.972;2023-12-28T06:21:47;45136.66;;;-143.84;66.04
6032;BME280;3044;43.232;27.972;2023-12-28T06:24:16;45140.47;;;-143.84;65.86
6032;BME280;3044;43.232;27.972;2023-12-28T06:26:43;45144.28;;;-143.84;65.72
6032;BME280;3044;43.232;27.972;2023-12-28T06:29:11;45146.19;;;-143.84;65.53
6032;BME280;3044;43.232;27.972;2023-12-28T06:31:38;45142.38;;;-143.84;65.82
6032;BME280;3044;43.232;27.972;2023-12-28T06:34:05;45161.41;;;-143.84;65.82
6032;BME280;3044;43.232;27.972;2023-12-28T06:36:33;45119.53;;;-143.84;65.99
6032;BME280;3044;43.232;27.972;2023-12-28T06:39:00;45115.72;;;-143.84;66.22
6032;BME280;3044;43.232;27.972;2023-12-28T06:41:29;45108.09;;;-143.84;66.66
6032;BME280;3044;43.232;27.972;2023-12-28T06:43:56;45144.28;;;-143.84;66.75
6032;BME280;3044;43.232;27.972;2023-12-28T06:46:23;45138.56;;;-143.84;66.46
6032;BME280;3044;43.232;27.972;2023-12-28T06:48:50;45157.59;;;-143.84;66.43
6032;BME280;3044;43.232;27.972;2023-12-28T06:51:18;45100.47;;;-143.84;65.95
6032;BME280;3044;43.232;27.972;2023-12-28T06:53:45;45130.94;;;-143.84;65.83
6032;BME280;3044;43.232;27.972;2023-12-28T06:56:12;45106.19;;;-143.84;63.25
6032;BME280;3044;43.232;27.972;2023-12-28T06:58:41;45115.72;;;-143.84;63.11
6032;BME280;3044;43.232;27.972;2023-12-28T07:01:08;45111.91;;;-143.84;58.90
6032;BME280;3044;43.232;27.972;2023-12-28T07:03:36;45129.03;;;-143.84;57.19
6032;BME280;3044;43.232;27.972;2023-12-28T07:06:03;45132.84;;;-143.84;57.65
6032;BME280;3044;43.232;27.972;2023-12-28T07:08:31;45140.47;;;-143.84;55.51
6032;BME280;3044;43.232;27.972;2023-12-28T07:10:58;45094.78;;;-143.84;54.57
6032;BME280;3044;43.232;27.972;2023-12-28T07:13:25;45100.47;;;-143.84;54.97
6032;BME280;3044;43.232;27.972;2023-12-28T07:15:53;45129.03;;;-143.84;54.79
6032;BME280;3044;43.232;27.972;2023-12-28T07:18:21;45110.00;;;-143.84;54.81
6032;BME280;3044;43.232;27.972;2023-12-28T07:20:48;45098.56;;;-143.84;51.67
6032;BME280;3044;43.232;27.972;2023-12-28T07:23:15;45108.09;;;-143.84;51.18
6032;BME280;3044;43.232;27.972;2023-12-28T07:25:43;45130.94;;;-143.84;50.76
6032;BME280;3044;43.232;27.972;2023-12-28T07:28:10;45102.38;;;-143.84;51.44
6032;BME280;3044;43.232;27.972;2023-12-28T07:30:37;45121.44;;;-143.84;49.81
6032;BME280;3044;43.232;27.972;2023-12-28T07:33:06;45083.34;;;-143.84;49.22
6032;BME280;3044;43.232;27.972;2023-12-28T07:35:33;45111.91;;;-143.84;49.25
6032;BME280;3044;43.232;27.972;2023-12-28T07:38:00;45094.78;;;-143.84;47.92
6032;BME280;3044;43.232;27.972;2023-12-28T07:40:27;45090.97;;;-143.84;48.18
6032;BME280;3044;43.232;27.972;2023-12-28T07:42:55;45098.56;;;-143.84;46.87
6032;BME280;3044;43.232;27.972;2023-12-28T07:45:22;45119.53;;;-143.84;45.69
6032;BME280;3044;43.232;27.972;2023-12-28T07:47:50;45140.47;;;-143.84;45.35
6032;BME280;3044;43.232;27.972;2023-12-28T07:50:19;45071.91;;;-143.84;45.61
6032;BME280;3044;43.232;27.972;2023-12-28T07:52:46;45083.34;;;-143.84;45.11
6032;BME280;3044;43.232;27.972;2023-12-28T07:55:14;45110.00;;;-143.84;44.77
6032;BME280;3044;43.232;27.972;2023-12-28T07:57:41;45096.66;;;-143.84;43.62
6032;BME280;3044;43.232;27.972;2023-12-28T08:00:09;45075.72;;;-143.84;43.69
6032;BME280;3044;43.232;27.972;2023-12-28T08:02:36;45087.16;;;-143.84;44.19
6032;BME280;3044;43.232;27.972;2023-12-28T08:05:04;45073.81;;;-143.84;44.55
6032;BME280;3044;43.232;27.972;2023-12-28T08:07:33;45085.25;;;-143.84;43.94
6032;BME280;3044;43.232;27.972;2023-12-28T08:10:00;45075.72;;;-143.84;44.61
6032;BME280;3044;43.232;27.972;2023-12-28T08:12:28;45058.59;;;-143.84;43.18
6032;BME280;3044;43.232;27.972;2023-12-28T08:14:55;45071.91;;;-143.84;43.17
6032;BME280;3044;43.232;27.972;2023-12-28T08:17:22;45083.34;;;-143.84;42.37
6032;BME280;3044;43.232;27.972;2023-12-28T08:19:49;45081.44;;;-143.84;42.69
6032;BME280;3044;43.232;27.972;2023-12-28T08:22:16;45047.16;;;-143.84;42.02
6032;BME280;3044;43.232;27.972;2023-12-28T08:24:45;45071.91;;;-143.84;42.49
6032;BME280;3044;43.232;27.972;2023-12-28T08:27:13;45052.88;;;-143.84;42.39
6032;BME280;3044;43.232;27.972;2023-12-28T08:29:40;45070.00;;;-143.84;41.43
6032;BME280;3044;43.232;27.972;2023-12-28T08:32:08;45054.78;;;-143.84;42.96
6032;BME280;3044;43.232;27.972;2023-12-28T08:34:36;45070.00;;;-143.84;42.48
6032;BME280;3044;43.232;27.972;2023-12-28T08:37:03;45094.78;;;-143.84;41.94
6032;BME280;3044;43.232;27.972;2023-12-28T08:39:30;45075.72;;;-143.84;42.42
6032;BME280;3044;43.232;27.972;2023-12-28T08:41:59;45079.53;;;-143.84;42.39
6032;BME280;3044;43.232;27.972;2023-12-28T08:44:26;45068.13;;;-143.84;42.25
6032;BME280;3044;43.232;27.972;2023-12-28T08:46:53;45071.91;;;-143.84;42.54
6032;BME280;3044;43.232;27.972;2023-12-28T08:49:20;45073.81;;;-143.84;41.92
6032;BME280;3044;43.232;27.972;2023-12-28T08:51:47;45058.59;;;-143.84;42.73
6032;BME280;3044;43.232;27.972;2023-12-28T08:54:15;45079.53;;;-143.84;41.94
6032;BME280;3044;43.232;27.972;2023-12-28T08:56:42;45077.63;;;-143.84;41.92
6032;BME280;3044;43.232;27.972;2023-12-28T08:59:10;45073.81;;;-143.84;41.93
6032;BME280;3044;43.232;27.972;2023-12-28T09:01:37;45056.69;;;-143.84;41.63
6032;BME280;3044;43.232;27.972;2023-12-28T09:04:05;45081.44;;;-143.84;41.47
6032;BME280;3044;43.232;27.972;2023-12-28T09:06:32;45081.44;;;-143.84;41.38
6032;BME280;3044;43.232;27.972;2023-12-28T09:08:59;45070.00;;;-143.84;41.01
6032;BME280;3044;43.232;27.972;2023-12-28T09:11:27;45043.34;;;-143.84;41.96
6032;BME280;3044;43.232;27.972;2023-12-28T09:13:55;45052.88;;;-143.84;41.31
6032;BME280;3044;43.232;27.972;2023-12-28T09:16:24;45079.53;;;-143.84;40.88
6032;BME280;3044;43.232;27.972;2023-12-28T09:18:51;45050.97;;;-143.84;41.53
6032;BME280;3044;43.232;27.972;2023-12-28T09:21:18;45087.16;;;-143.84;42.23
6032;BME280;3044;43.232;27.972;2023-12-28T09:23:46;45083.34;;;-143.84;42.58
6032;BME280;3044;43.232;27.972;2023-12-28T09:26:13;45058.59;;;-143.84;43.45
6032;BME280;3044;43.232;27.972;2023-12-28T09:28:40;45075.72;;;-143.84;42.79
6032;BME280;3044;43.232;27.972;2023-12-28T09:31:07;45085.25;;;-143.84;43.25
6032;BME280;3044;43.232;27.972;2023-12-28T09:33:36;45062.41;;;-143.84;43.13
6032;BME280;3044;43.232;27.972;2023-12-28T09:36:03;45070.00;;;-143.84;42.75
6032;BME280;3044;43.232;27.972;2023-12-28T09:38:31;45073.81;;;-143.84;42.05
6032;BME280;3044;43.232;27.972;2023-12-28T09:40:58;45089.06;;;-143.84;42.12
6032;BME280;3044;43.232;27.972;2023-12-28T09:43:35;45045.25;;;-143.84;42.48
6032;BME280;3044;43.232;27.972;2023-12-28T09:46:06;45073.81;;;-143.84;43.02
6032;BME280;3044;43.232;27.972;2023-12-28T09:48:37;45064.31;;;-143.84;42.95
6032;BME280;3044;43.232;27.972;2023-12-28T09:51:05;45062.41;;;-143.84;43.08
6032;BME280;3044;43.232;27.972;2023-12-28T09:53:32;45098.56;;;-143.84;43.75
6032;BME280;3044;43.232;27.972;2023-12-28T09:55:59;45075.72;;;-143.84;45.16
6032;BME280;3044;43.232;27.972;2023-12-28T09:58:28;45100.47;;;-143.84;44.36
6032;BME280;3044;43.232;27.972;2023-12-28T10:00:59;45071.91;;;-143.84;44.96
6032;BME280;3044;43.232;27.972;2023-12-28T10:03:27;45100.47;;;-143.84;43.73
6032;BME280;3044;43.232;27.972;2023-12-28T10:05:55;45062.41;;;-143.84;44.33
6032;BME280;3044;43.232;27.972;2023-12-28T10:08:22;45077.63;;;-143.84;45.10
6032;BME280;3044;43.232;27.972;2023-12-28T10:10:50;45064.31;;;-143.84;45.40
6032;BME280;3044;43.232;27.972;2023-12-28T10:13:19;45090.97;;;-143.84;45.58
6032;BME280;3044;43.232;27.972;2023-12-28T10:15:47;45079.53;;;-143.84;45.54
6032;BME280;3044;43.232;27.972;2023-12-28T10:18:17;45089.06;;;-143.84;45.18
6032;BME280;3044;43.232;27.972;2023-12-28T10:20:49;45090.97;;;-143.84;45.23
6032;BME280;3044;43.232;27.972;2023-12-28T10:23:18;45052.88;;;-143.84;45.23
6032;BME280;3044;43.232;27.972;2023-12-28T10:25:47;45073.81;;;-143.84;45.39
6032;BME280;3044;43.232;27.972;2023-12-28T10:28:16;45073.81;;;-143.84;44.16
6032;BME280;3044;43.232;27.972;2023-12-28T10:30:45;45054.78;;;-143.84;44.97
6032;BME280;3044;43.232;27.972;2023-12-28T10:33:13;45111.91;;;-143.84;44.31
6032;BME280;3044;43.232;27.972;2023-12-28T10:35:42;45083.34;;;-143.84;44.51
6032;BME280;3044;43.232;27.972;2023-12-28T10:38:10;45075.72;;;-143.84;45.58
6032;BME280;3044;43.232;27.972;2023-12-28T10:40:42;45081.44;;;-143.84;46.28
6032;BME280;3044;43.232;27.972;2023-12-28T10:43:11;45054.78;;;-143.84;46.98
6032;BME280;3044;43.232;27.972;2023-12-28T10:45:42;45113.81;;;-143.84;48.34
6032;BME280;3044;43.232;27.972;2023-12-28T10:48:13;45068.13;;;-143.84;48.65
6032;BME280;3044;43.232;27.972;2023-12-28T10:50:42;45092.88;;;-143.84;49.00
6032;BME280;3044;43.232;27.972;2023-12-28T10:53:24;45075.72;;;-143.84;47.72
6032;BME280;3044;43.232;27.972;2023-12-28T10:56:04;45064.31;;;-143.84;48.65
6032;BME280;3044;43.232;27.972;2023-12-28T10:58:40;45079.53;;;-143.84;49.81
6032;BME280;3044;43.232;27.972;2023-12-28T11:01:17;45089.06;;;-143.84;49.18
6032;BME280;3044;43.232;27.972;2023-12-28T11:03:56;45083.34;;;-143.84;49.55
6032;BME280;3044;43.232;27.972;2023-12-28T11:06:26;45060.50;;;-143.84;50.10
6032;BME280;3044;43.232;27.972;2023-12-28T11:08:54;45083.34;;;-143.84;50.65
6032;BME280;3044;43.232;27.972;2023-12-28T11:11:25;45079.53;;;-143.84;48.36
6032;BME280;3044;43.232;27.972;2023-12-28T11:13:54;45092.88;;;-143.84;48.48
6032;BME280;3044;43.232;27.972;2023-12-28T11:16:22;45075.72;;;-143.84;48.51
6032;BME280;3044;43.232;27.972;2023-12-28T11:19:01;45083.34;;;-143.84;49.12
6032;BME280;3044;43.232;27.972;2023-12-28T11:21:29;45087.16;;;-143.84;50.43
6032;BME280;3044;43.232;27.972;2023-12-28T11:23:57;45079.53;;;-143.84;49.43
6032;BME280;3044;43.232;27.972;2023-12-28T11:26:25;45081.44;;;-143.84;49.99
6032;BME280;3044;43.232;27.972;2023-12-28T11:29:00;45085.25;;;-143.84;50.30
6032;BME280;3044;43.232;27.972;2023-12-28T11:31:28;45079.53;;;-143.84;51.42
6032;BME280;3044;43.232;27.972;2023-12-28T11:33:55;45102.38;;;-143.84;51.53
6032;BME280;3044;43.232;27.972;2023-12-28T11:36:26;45094.78;;;-143.84;51.43
6032;BME280;3044;43.232;27.972;2023-12-28T11:39:01;45098.56;;;-143.84;52.71
6032;BME280;3044;43.232;27.972;2023-12-28T11:41:31;45096.66;;;-143.84;53.90
6032;BME280;3044;43.232;27.972;2023-12-28T11:44:01;45079.53;;;-143.84;51.15
6032;BME280;3044;43.232;27.972;2023-12-28T11:46:30;45092.88;;;-143.84;50.68
6032;BME280;3044;43.232;27.972;2023-12-28T11:49:03;45092.88;;;-143.84;51.61
6032;BME280;3044;43.232;27.972;2023-12-28T11:51:33;45079.53;;;-143.84;51.05
6032;BME280;3044;43.232;27.972;2023-12-28T11:54:02;45071.91;;;-143.84;50.07
6032;BME280;3044;43.232;27.972;2023-12-28T11:56:30;45096.66;;;-143.84;50.11
6032;BME280;3044;43.232;27.972;2023-12-28T11:58:58;45062.41;;;-143.84;49.92
6032;BME280;3044;43.232;27.972;2023-12-28T12:01:25;45073.81;;;-143.84;50.31
6032;BME280;3044;43.232;27.972;2023-12-28T12:03:53;45094.78;;;-143.84;48.89
6032;BME280;3044;43.232;27.972;2023-12-28T12:06:20;45100.47;;;-143.84;47.86
6032;BME280;3044;43.232;27.972;2023-12-28T12:08:49;45096.66;;;-143.84;49.10
6032;BME280;3044;43.232;27.972;2023-12-28T12:11:17;45090.97;;;-143.84;49.68
6032;BME280;3044;43.232;27.972;2023-12-28T12:13:44;45096.66;;;-143.84;49.20
6032;BME280;3044;43.232;27.972;2023-12-28T12:16:14;45119.53;;;-143.84;49.14
6032;BME280;3044;43.232;27.972;2023-12-28T12:18:41;45079.53;;;-143.84;48.91
6032;BME280;3044;43.232;27.972;2023-12-28T12:21:08;45075.72;;;-143.84;49.38
6032;BME280;3044;43.232;27.972;2023-12-28T12:23:35;45079.53;;;-143.84;49.85
6032;BME280;3044;43.232;27.972;2023-12-28T12:26:06;45090.97;;;-143.84;49.12
6032;BME280;3044;43.232;27.972;2023-12-28T12:28:33;45089.06;;;-143.84;48.79
6032;BME280;3044;43.232;27.972;2023-12-28T12:31:01;45083.34;;;-143.84;50.06
6032;BME280;3044;43.232;27.972;2023-12-28T12:33:28;45115.72;;;-143.84;52.35
6032;BME280;3044;43.232;27.972;2023-12-28T12:35:56;45092.88;;;-143.84;52.74
6032;BME280;3044;43.232;27.972;2023-12-28T12:38:23;45098.56;;;-143.84;53.65
6032;BME280;3044;43.232;27.972;2023-12-28T12:40:50;45123.34;;;-143.84;54.23
6032;BME280;3044;43.232;27.972;2023-12-28T12:43:19;45106.19;;;-143.84;54.10
6032;BME280;3044;43.232;27.972;2023-12-28T12:45:48;45102.38;;;-143.84;55.06
6032;BME280;3044;43.232;27.972;2023-12-28T12:48:15;45094.78;;;-143.84;57.48
6032;BME280;3044;43.232;27.972;2023-12-28T12:50:43;45092.88;;;-143.84;58.19
6032;BME280;3044;43.232;27.972;2023-12-28T12:53:11;45094.78;;;-143.84;58.30
6032;BME280;3044;43.232;27.972;2023-12-28T12:55:38;45096.66;;;-143.84;58.32